createdAt,value
2022-11-22T00:00:24.964Z,8.73
2022-11-22T00:02:51.853Z,8.10
2022-11-22T00:05:19.024Z,8.45
2022-11-22T00:07:45.810Z,8.77
2022-11-22T00:10:14.336Z,8.00
2022-11-22T00:12:41.747Z,7.88
2022-11-22T00:15:09.425Z,7.38
2022-11-22T00:17:36.247Z,7.47
2022-11-22T00:20:04.488Z,8.55
2022-11-22T00:22:32.753Z,8.60
2022-11-22T00:24:59.614Z,8.57
2022-11-22T00:27:26.998Z,8.27
2022-11-22T00:29:54.264Z,8.30
2022-11-22T00:32:21.008Z,8.30
2022-11-22T00:34:47.950Z,8.47
2022-11-22T00:37:14.975Z,8.05
2022-11-22T00:39:41.933Z,8.52
2022-11-22T00:42:08.695Z,8.45
2022-11-22T00:44:35.495Z,8.65
2022-11-22T00:47:02.284Z,8.67
2022-11-22T00:49:29.590Z,9.25
2022-11-22T00:51:56.516Z,9.48
2022-11-22T00:54:23.307Z,8.73
2022-11-22T00:56:50.088Z,8.10
2022-11-22T00:59:17.115Z,7.97
2022-11-22T01:01:44.014Z,7.35
2022-11-22T01:04:10.936Z,6.15
2022-11-22T01:06:37.767Z,5.97
2022-11-22T01:09:04.569Z,6.15
2022-11-22T01:11:31.338Z,6.40
2022-11-22T01:13:58.187Z,6.07
2022-11-22T01:16:25.289Z,6.50
2022-11-22T01:18:52.182Z,6.93
2022-11-22T01:21:19.169Z,7.15
2022-11-22T01:23:46.186Z,6.70
2022-11-22T01:26:13.352Z,5.90
2022-11-22T01:28:40.155Z,6.55
2022-11-22T01:31:07.904Z,6.30
2022-11-22T01:33:35.103Z,5.75
2022-11-22T01:36:02.026Z,6.30
2022-11-22T01:38:28.842Z,6.18
2022-11-22T01:40:55.691Z,5.72
2022-11-22T01:43:27.591Z,6.15
2022-11-22T01:46:02.700Z,5.90
2022-11-22T01:48:54.013Z,6.40
2022-11-22T01:51:28.732Z,5.70
2022-11-22T01:54:03.173Z,6.25
2022-11-22T01:56:30.868Z,5.65
2022-11-22T01:59:03.151Z,5.30
2022-11-22T02:01:30.906Z,5.97
2022-11-22T02:04:00.282Z,5.88
2022-11-22T02:06:38.279Z,5.57
2022-11-22T02:09:13.124Z,5.40
2022-11-22T02:11:54.193Z,5.70
2022-11-22T02:14:25.225Z,5.17
2022-11-22T02:16:52.367Z,6.32
2022-11-22T02:19:43.674Z,6.13
2022-11-22T02:22:34.358Z,6.05
2022-11-22T02:25:41.578Z,5.82
2022-11-22T02:28:13.994Z,5.87
2022-11-22T02:30:41.458Z,6.15
2022-11-22T02:33:08.706Z,6.32
2022-11-22T02:35:35.634Z,6.55
2022-11-22T02:38:07.927Z,6.25
2022-11-22T02:40:40.600Z,6.70
2022-11-22T02:43:30.012Z,6.43
2022-11-22T02:46:04.116Z,6.63
2022-11-22T02:48:31.020Z,6.13
2022-11-22T02:50:58.141Z,6.95
2022-11-22T02:53:25.729Z,7.33
2022-11-22T02:55:52.531Z,6.75
2022-11-22T02:58:19.927Z,6.90
2022-11-22T03:00:46.795Z,7.60
2022-11-22T03:03:13.780Z,6.85
2022-11-22T03:05:40.746Z,6.63
2022-11-22T03:08:07.808Z,7.63
2022-11-22T03:10:35.303Z,7.05
2022-11-22T03:13:02.624Z,6.43
2022-11-22T03:15:30.180Z,7.05
2022-11-22T03:18:01.749Z,6.13
2022-11-22T03:20:29.689Z,6.70
2022-11-22T03:22:56.940Z,6.47
2022-11-22T03:25:23.710Z,6.53
2022-11-22T03:27:50.621Z,6.53
2022-11-22T03:30:17.529Z,6.23
2022-11-22T03:32:44.371Z,6.95
2022-11-22T03:35:11.214Z,6.93
2022-11-22T03:37:38.494Z,5.88
2022-11-22T03:40:05.953Z,6.20
2022-11-22T03:42:32.831Z,6.03
2022-11-22T03:44:59.647Z,5.97
2022-11-22T03:47:26.733Z,6.85
2022-11-22T03:49:53.503Z,6.72
2022-11-22T03:52:20.416Z,5.82
2022-11-22T03:54:47.245Z,6.47
2022-11-22T03:57:14.212Z,5.80
2022-11-22T03:59:41.018Z,6.68
2022-11-22T04:02:07.848Z,6.55
2022-11-22T04:04:34.633Z,6.60
2022-11-22T04:07:01.469Z,6.43
2022-11-22T04:09:28.891Z,6.22
2022-11-22T04:11:56.044Z,6.10
2022-11-22T04:14:22.811Z,6.35
2022-11-22T04:16:49.648Z,6.28
2022-11-22T04:19:16.426Z,6.00
2022-11-22T04:21:43.346Z,6.75
2022-11-22T04:24:12.106Z,5.95
2022-11-22T04:26:38.946Z,5.53
2022-11-22T04:29:10.126Z,5.97
2022-11-22T04:31:37.532Z,5.60
2022-11-22T04:34:04.477Z,5.47
2022-11-22T04:36:31.338Z,5.50
2022-11-22T04:38:58.224Z,6.25
2022-11-22T04:42:02.808Z,5.78
2022-11-22T04:48:13.717Z,6.60
2022-11-22T04:50:41.540Z,6.30
2022-11-22T04:53:08.380Z,6.00
2022-11-22T04:55:35.572Z,5.95
2022-11-22T04:58:02.725Z,6.37
2022-11-22T05:00:31.117Z,5.80
2022-11-22T05:02:58.711Z,5.72
2022-11-22T05:05:26.650Z,6.68
2022-11-22T05:07:53.660Z,6.05
2022-11-22T05:10:26.172Z,6.23
2022-11-22T05:12:54.787Z,5.43
2022-11-22T05:15:21.631Z,6.05
2022-11-22T05:17:48.407Z,6.10
2022-11-22T05:20:15.301Z,5.85
2022-11-22T05:22:42.074Z,7.27
2022-11-22T05:25:09.390Z,6.47
2022-11-22T05:27:36.354Z,6.95
2022-11-22T05:30:03.982Z,6.65
2022-11-22T05:32:32.341Z,6.78
2022-11-22T05:34:59.593Z,6.83
2022-11-22T05:37:26.664Z,6.00
2022-11-22T05:39:53.759Z,6.53
2022-11-22T05:42:20.616Z,5.55
2022-11-22T05:44:47.446Z,5.72
2022-11-22T05:47:14.377Z,5.60
2022-11-22T05:49:41.313Z,6.32
2022-11-22T05:52:08.273Z,5.13
2022-11-22T05:54:35.125Z,5.45
2022-11-22T05:57:01.890Z,5.75
2022-11-22T05:59:28.892Z,5.87
2022-11-22T06:01:56.083Z,5.78
2022-11-22T06:04:23.551Z,5.43
2022-11-22T06:06:50.680Z,5.70
2022-11-22T06:09:17.503Z,5.30
2022-11-22T06:11:44.361Z,5.40
2022-11-22T06:14:11.182Z,5.50
2022-11-22T06:16:38.079Z,5.47
2022-11-22T06:19:04.912Z,4.90
2022-11-22T06:21:32.243Z,6.00
2022-11-22T06:23:59.832Z,5.83
2022-11-22T06:26:27.074Z,5.45
2022-11-22T06:28:54.943Z,5.50
2022-11-22T06:31:25.000Z,5.32
2022-11-22T06:33:57.426Z,5.18
2022-11-22T06:36:29.962Z,5.60
2022-11-22T06:38:57.600Z,5.80
2022-11-22T06:41:26.976Z,5.45
2022-11-22T06:43:55.176Z,5.95
2022-11-22T06:46:23.945Z,5.57
2022-11-22T06:48:51.956Z,5.80
2022-11-22T06:51:21.528Z,5.65
2022-11-22T06:53:49.678Z,5.60
2022-11-22T06:56:22.754Z,5.43
2022-11-22T06:58:51.204Z,5.97
2022-11-22T07:01:23.558Z,5.77
2022-11-22T07:03:51.937Z,6.57
2022-11-22T07:06:19.669Z,5.68
2022-11-22T07:08:47.385Z,7.03
2022-11-22T07:11:20.261Z,5.75
2022-11-22T07:13:47.730Z,6.00
2022-11-22T07:16:17.007Z,5.80
2022-11-22T07:18:44.242Z,5.63
2022-11-22T07:21:19.718Z,6.07
2022-11-22T07:23:48.122Z,6.32
2022-11-22T07:26:16.839Z,6.30
2022-11-22T07:28:44.883Z,5.78
2022-11-22T07:31:13.748Z,6.63
2022-11-22T07:33:41.135Z,5.75
2022-11-22T07:36:11.884Z,6.75
2022-11-22T07:38:39.287Z,6.10
2022-11-22T07:41:07.145Z,5.90
2022-11-22T07:43:34.653Z,6.60
2022-11-22T07:46:03.464Z,5.63
2022-11-22T07:48:31.515Z,6.00
2022-11-22T07:51:07.345Z,5.93
2022-11-22T07:53:36.204Z,6.10
2022-11-22T07:56:04.740Z,5.75
2022-11-22T07:58:32.205Z,5.85
2022-11-22T08:00:59.057Z,5.63
2022-11-22T08:03:29.150Z,5.80
2022-11-22T08:06:04.655Z,5.82
2022-11-22T08:08:32.078Z,5.65
2022-11-22T08:10:58.845Z,5.05
2022-11-22T08:13:26.302Z,6.45
2022-11-22T08:15:54.898Z,6.13
2022-11-22T08:18:22.681Z,5.97
2022-11-22T08:21:22.126Z,5.55
2022-11-22T08:23:48.874Z,5.60
2022-11-22T08:26:17.706Z,6.05
2022-11-22T08:28:44.700Z,5.40
2022-11-22T08:31:15.712Z,5.60
2022-11-22T08:33:44.203Z,5.75
2022-11-22T08:36:11.103Z,5.43
2022-11-22T08:38:38.139Z,5.25
2022-11-22T08:41:07.173Z,5.87
2022-11-22T08:43:34.231Z,5.80
2022-11-22T08:46:01.002Z,5.57
2022-11-22T08:48:29.100Z,6.10
2022-11-22T08:50:58.574Z,5.65
2022-11-22T08:53:25.886Z,5.60
2022-11-22T08:55:53.752Z,6.10
2022-11-22T08:58:20.655Z,7.00
2022-11-22T09:00:47.506Z,7.30
2022-11-22T09:03:14.390Z,6.88
2022-11-22T09:08:32.654Z,7.05
2022-11-22T09:11:08.518Z,7.72
2022-11-22T09:13:35.919Z,7.15
2022-11-22T09:16:14.952Z,7.05
2022-11-22T09:18:41.891Z,6.70
2022-11-22T09:21:14.568Z,6.80
2022-11-22T09:23:43.400Z,6.55
2022-11-22T09:26:15.340Z,7.10
2022-11-22T09:28:42.246Z,6.90
2022-11-22T09:31:11.293Z,7.47
2022-11-22T09:33:40.090Z,7.57
2022-11-22T09:36:11.129Z,7.43
2022-11-22T09:38:38.168Z,8.30
2022-11-22T09:42:03.775Z,7.35
2022-11-22T09:44:40.310Z,8.07
2022-11-22T09:47:25.354Z,7.72
2022-11-22T09:50:30.776Z,8.02
2022-11-22T09:53:05.096Z,7.35
2022-11-22T09:55:39.656Z,8.18
2022-11-22T09:58:11.340Z,8.20
2022-11-22T10:00:38.585Z,7.70
2022-11-22T10:03:25.356Z,8.05
2022-11-22T10:05:55.155Z,7.40
2022-11-22T10:08:43.766Z,8.95
2022-11-22T10:11:45.788Z,8.73
2022-11-22T10:14:44.539Z,8.68
2022-11-22T10:17:20.642Z,9.23
2022-11-22T10:19:54.750Z,8.93
2022-11-22T10:22:21.830Z,8.80
2022-11-22T10:24:48.597Z,8.13
2022-11-22T10:27:15.888Z,8.55
2022-11-22T10:29:57.861Z,8.77
2022-11-22T10:33:03.260Z,9.32
2022-11-22T10:35:43.354Z,8.82
2022-11-22T10:38:48.082Z,9.90
2022-11-22T10:41:37.156Z,8.30
2022-11-22T10:44:17.031Z,8.45
2022-11-22T10:47:11.193Z,9.15
2022-11-22T10:49:55.457Z,8.45
2022-11-22T10:52:29.482Z,9.40
2022-11-22T10:55:19.356Z,9.20
2022-11-22T10:57:59.630Z,8.75
2022-11-22T11:00:30.769Z,7.20
2022-11-22T11:03:23.765Z,8.20
2022-11-22T11:06:38.027Z,7.33
2022-11-22T11:12:16.012Z,9.52
2022-11-22T11:14:52.541Z,8.43
2022-11-22T11:17:26.812Z,7.65
2022-11-22T11:19:57.711Z,8.57
2022-11-22T11:22:58.597Z,9.48
2022-11-22T11:25:37.034Z,9.40
2022-11-22T11:28:26.432Z,8.68
2022-11-22T11:31:07.096Z,9.70
2022-11-22T11:33:39.015Z,9.67
2022-11-22T11:36:10.337Z,8.98
2022-11-22T11:38:48.885Z,8.88
2022-11-22T11:41:26.049Z,9.52
2022-11-22T11:43:55.465Z,10.15
2022-11-22T11:46:27.631Z,9.40
2022-11-22T11:49:08.443Z,9.02
2022-11-22T11:51:40.135Z,9.27
2022-11-22T11:54:15.277Z,8.73
2022-11-22T11:57:02.113Z,8.13
2022-11-22T11:59:38.065Z,8.57
2022-11-22T12:02:22.339Z,7.80
2022-11-22T12:05:02.530Z,9.30
2022-11-22T12:07:35.679Z,8.18
2022-11-22T12:10:34.735Z,7.95
2022-11-22T12:13:08.576Z,7.30
2022-11-22T12:15:58.930Z,7.60
2022-11-22T12:18:43.721Z,7.47
2022-11-22T12:21:44.127Z,7.05
2022-11-22T12:27:16.685Z,6.90
2022-11-22T12:29:43.622Z,6.90
2022-11-22T12:32:25.784Z,6.82
2022-11-22T12:35:03.107Z,6.88
2022-11-22T12:37:37.377Z,7.15
2022-11-22T12:40:14.084Z,6.70
2022-11-22T12:42:55.869Z,7.28
2022-11-22T12:45:30.735Z,6.60
2022-11-22T12:48:00.949Z,6.60
2022-11-22T12:50:42.096Z,6.60
2022-11-22T12:53:13.306Z,6.87
2022-11-22T12:55:54.733Z,6.20
2022-11-22T12:58:33.338Z,6.13
2022-11-22T13:01:12.806Z,6.45
2022-11-22T13:03:48.969Z,6.30
2022-11-22T13:06:22.024Z,5.90
2022-11-22T13:09:11.623Z,7.25
2022-11-22T13:11:50.950Z,7.30
2022-11-22T13:14:23.364Z,8.65
2022-11-22T13:16:51.399Z,9.27
2022-11-22T13:19:22.205Z,10.07
2022-11-22T13:22:07.769Z,9.73
2022-11-22T13:24:40.301Z,10.07
2022-11-22T13:27:24.768Z,10.25
2022-11-22T13:29:55.585Z,10.63
2022-11-22T13:32:23.043Z,10.80
2022-11-22T13:35:13.794Z,10.73
2022-11-22T13:37:44.715Z,11.52
2022-11-22T13:40:40.242Z,10.90
2022-11-22T13:43:21.996Z,10.95
2022-11-22T13:45:54.250Z,11.53
2022-11-22T13:48:39.523Z,11.77
2022-11-22T13:51:08.699Z,11.90
2022-11-22T13:53:41.227Z,10.43
2022-11-22T13:56:17.080Z,11.30
2022-11-22T13:58:50.996Z,11.47
2022-11-22T14:01:35.204Z,10.80
2022-11-22T14:04:25.064Z,10.93
2022-11-22T14:07:07.236Z,11.50
2022-11-22T14:09:38.961Z,10.95
2022-11-22T14:12:11.511Z,10.13
2022-11-22T14:14:45.082Z,9.45
2022-11-22T14:17:26.831Z,8.95
2022-11-22T14:20:09.738Z,8.93
2022-11-22T14:22:42.360Z,9.70
2022-11-22T14:25:43.167Z,9.27
2022-11-22T14:28:22.825Z,9.80
2022-11-22T14:30:54.094Z,10.25
2022-11-22T14:33:24.147Z,9.82
2022-11-22T14:36:06.824Z,10.48
2022-11-22T14:38:35.999Z,10.30
2022-11-22T14:41:27.735Z,9.82
2022-11-22T14:44:19.836Z,9.90
2022-11-22T14:46:55.958Z,10.52
2022-11-22T14:49:30.028Z,8.93
2022-11-22T14:51:58.720Z,10.43
2022-11-22T14:54:30.778Z,10.10
2022-11-22T14:57:04.493Z,9.80
2022-11-22T14:59:35.030Z,9.80
2022-11-22T15:02:32.754Z,10.27
2022-11-22T15:09:13.288Z,9.88
2022-11-22T15:09:19.643Z,9.87
2022-11-22T15:11:24.390Z,10.50
2022-11-22T15:13:53.951Z,9.82
2022-11-22T15:57:27.125Z,7.55
2022-11-22T15:59:57.650Z,7.80
2022-11-22T16:02:31.782Z,7.13
2022-11-22T16:06:04.243Z,7.45
2022-11-22T16:07:51.402Z,7.45
2022-11-22T16:10:41.409Z,7.22
2022-11-22T16:13:27.815Z,8.27
2022-11-22T16:16:12.826Z,7.57
2022-11-22T16:18:41.646Z,7.80
2022-11-22T16:21:12.550Z,7.72
2022-11-22T16:23:44.037Z,8.80
2022-11-22T16:26:28.267Z,8.35
2022-11-22T16:28:57.538Z,8.60
2022-11-22T16:31:33.329Z,8.35
2022-11-22T16:34:00.332Z,8.25
2022-11-22T16:36:30.641Z,8.40
2022-11-22T16:38:58.938Z,8.57
2022-11-22T16:41:30.169Z,9.37
2022-11-22T16:44:02.737Z,8.77
2022-11-22T16:46:30.791Z,8.30
2022-11-22T16:48:58.821Z,7.78
2022-11-22T16:51:28.921Z,8.15
2022-11-22T16:54:06.207Z,8.47
2022-11-22T16:56:34.012Z,8.10
2022-11-22T16:59:01.191Z,7.82
2022-11-22T17:01:33.204Z,7.85
2022-11-22T17:04:01.757Z,7.70
2022-11-22T17:06:31.965Z,7.97
2022-11-22T17:09:00.717Z,8.00
2022-11-22T17:11:31.342Z,8.00
2022-11-22T17:14:00.325Z,7.70
2022-11-22T17:16:27.895Z,8.20
2022-11-22T17:18:55.246Z,7.83
2022-11-22T17:21:37.027Z,6.90
2022-11-22T17:24:20.588Z,7.43
2022-11-22T17:26:48.248Z,8.15
2022-11-22T17:29:42.974Z,7.82
2022-11-22T17:32:04.142Z,7.40
2022-11-22T17:34:32.738Z,7.75
2022-11-22T17:37:01.201Z,8.30
2022-11-22T17:39:29.151Z,8.57
2022-11-22T17:41:57.580Z,8.07
2022-11-22T17:44:25.374Z,8.40
2022-11-22T17:46:53.319Z,8.68
2022-11-22T17:49:21.964Z,8.70
2022-11-22T17:51:50.592Z,8.65
2022-11-22T17:54:18.451Z,8.73
2022-11-22T17:56:47.086Z,7.77
2022-11-22T17:59:14.447Z,8.00
2022-11-22T18:01:41.849Z,8.20
2022-11-22T18:04:10.102Z,8.68
2022-11-22T18:06:37.995Z,8.27
2022-11-22T18:09:08.278Z,8.83
2022-11-22T18:11:35.524Z,8.70
2022-11-22T18:14:03.076Z,8.27
2022-11-22T18:16:30.666Z,8.30
2022-11-22T18:18:58.822Z,8.40
2022-11-22T18:21:28.264Z,8.27
2022-11-22T18:24:00.658Z,7.70
2022-11-22T18:26:39.524Z,8.00
2022-11-22T18:31:59.982Z,7.60
2022-11-22T18:34:30.012Z,7.87
2022-11-22T18:37:01.891Z,7.97
2022-11-22T18:39:37.090Z,8.10
2022-11-22T18:42:07.829Z,7.80
2022-11-22T18:44:35.721Z,7.82
2022-11-22T18:47:03.045Z,7.50
2022-11-22T18:49:31.230Z,7.45
2022-11-22T18:51:58.829Z,7.53
2022-11-22T18:54:26.354Z,7.80
2022-11-22T18:56:54.488Z,8.15
2022-11-22T18:59:22.116Z,8.03
2022-11-22T19:01:50.742Z,7.13
2022-11-22T19:04:20.321Z,7.95
2022-11-22T19:06:47.583Z,7.68
2022-11-22T19:09:14.870Z,7.10
2022-11-22T19:11:42.687Z,6.70
2022-11-22T19:14:10.876Z,7.43
2022-11-22T19:16:38.636Z,7.03
2022-11-22T19:19:09.454Z,6.72
2022-11-22T19:21:37.518Z,7.68
2022-11-22T19:24:06.631Z,7.07
2022-11-22T19:26:35.504Z,6.95
2022-11-22T19:29:03.573Z,6.97
2022-11-22T19:31:31.787Z,6.63
2022-11-22T19:34:01.611Z,6.88
2022-11-22T19:36:33.747Z,6.70
2022-11-22T19:39:08.655Z,6.43
2022-11-22T19:41:37.990Z,6.55
2022-11-22T19:44:06.511Z,6.97
2022-11-22T19:46:37.466Z,6.57
2022-11-22T19:49:06.180Z,6.60
2022-11-22T19:51:33.947Z,6.05
2022-11-22T19:54:06.986Z,6.57
2022-11-22T19:56:37.351Z,6.82
2022-11-22T19:59:08.324Z,6.47
2022-11-22T20:01:36.616Z,7.20
2022-11-22T20:04:06.814Z,6.63
2022-11-22T20:06:35.764Z,6.88
2022-11-22T20:09:09.737Z,6.82
2022-11-22T20:11:41.277Z,7.97
2022-11-22T20:14:10.146Z,7.20
2022-11-22T20:16:39.149Z,7.75
2022-11-22T20:19:06.810Z,7.50
2022-11-22T20:21:36.199Z,7.78
2022-11-22T20:24:06.229Z,7.47
2022-11-22T20:26:35.579Z,8.10
2022-11-22T20:29:07.154Z,7.60
2022-11-22T20:31:36.971Z,7.72
2022-11-22T20:34:06.211Z,7.43
2022-11-22T20:36:36.721Z,7.47
2022-11-22T20:39:09.830Z,7.20
2022-11-22T20:41:39.088Z,7.47
2022-11-22T20:44:08.621Z,7.95
2022-11-22T20:46:37.471Z,8.70
2022-11-22T20:49:05.601Z,8.80
2022-11-22T20:51:34.250Z,9.53
2022-11-22T20:54:04.384Z,10.45
2022-11-22T20:56:33.500Z,9.57
2022-11-22T20:59:06.532Z,9.65
2022-11-22T21:01:35.965Z,9.43
2022-11-22T21:04:04.636Z,9.13
2022-11-22T21:06:33.791Z,9.55
2022-11-22T21:09:03.115Z,9.70
2022-11-22T21:11:30.494Z,9.63
2022-11-22T21:14:00.175Z,10.00
2022-11-22T21:16:29.328Z,9.63
2022-11-22T21:18:59.434Z,9.82
2022-11-22T21:21:26.835Z,9.52
2022-11-22T21:23:56.436Z,10.35
2022-11-22T21:26:26.079Z,9.75
2022-11-22T21:28:53.779Z,9.87
2022-11-22T21:31:22.769Z,10.23
2022-11-22T21:33:51.305Z,10.30
2022-11-22T21:36:19.192Z,10.60
2022-11-22T21:38:46.071Z,10.80
2022-11-22T21:44:02.585Z,10.75
2022-11-22T21:46:29.794Z,11.15
2022-11-22T21:48:56.716Z,10.98
2022-11-22T21:51:23.518Z,10.75
2022-11-22T21:53:51.378Z,11.20
2022-11-22T21:56:18.155Z,10.38
2022-11-22T21:58:45.351Z,10.63
2022-11-22T22:01:14.277Z,10.70
2022-11-22T22:03:41.747Z,9.32
2022-11-22T22:06:08.786Z,10.33
2022-11-22T22:08:36.271Z,10.35
2022-11-22T22:11:04.435Z,10.15
2022-11-22T22:13:31.261Z,10.30
2022-11-22T22:16:00.476Z,10.68
2022-11-22T22:18:32.075Z,9.93
2022-11-22T22:21:06.328Z,9.60
2022-11-22T22:23:38.762Z,9.75
2022-11-22T22:26:08.852Z,10.27
2022-11-22T22:28:37.600Z,9.90
2022-11-22T22:31:11.574Z,10.80
2022-11-22T22:33:40.724Z,9.90
2022-11-22T22:36:09.853Z,9.85
2022-11-22T22:38:37.770Z,9.90
2022-11-22T22:41:05.601Z,10.50
2022-11-22T22:43:34.835Z,9.77
2022-11-22T22:46:15.637Z,9.52
2022-11-22T22:48:43.178Z,10.23
2022-11-22T22:51:32.804Z,10.32
2022-11-22T22:54:00.906Z,8.63
2022-11-22T22:56:29.444Z,9.20
2022-11-22T22:58:57.314Z,9.93
2022-11-22T23:01:26.276Z,9.02
2022-11-22T23:03:55.764Z,9.85
2022-11-22T23:06:26.138Z,9.48
2022-11-22T23:08:54.779Z,9.80
2022-11-22T23:11:27.866Z,9.30
2022-11-22T23:13:54.647Z,9.48
2022-11-22T23:16:21.757Z,9.40
2022-11-22T23:18:48.564Z,8.73
2022-11-22T23:21:15.413Z,8.23
2022-11-22T23:23:42.384Z,7.65
2022-11-22T23:26:12.419Z,8.05
2022-11-22T23:28:39.498Z,7.35
2022-11-22T23:31:10.825Z,7.60
2022-11-22T23:33:43.359Z,6.33
2022-11-22T23:36:13.178Z,6.70
2022-11-22T23:38:40.469Z,6.40
2022-11-22T23:41:07.780Z,6.22
2022-11-22T23:43:34.523Z,6.00
2022-11-22T23:46:01.588Z,6.10
2022-11-22T23:48:28.570Z,5.80
2022-11-22T23:50:55.812Z,5.75
2022-11-22T23:53:22.780Z,4.72
2022-11-22T23:55:49.445Z,4.88
2022-11-22T23:58:16.867Z,5.10
